Hoven, South Dakota
Current Conditions -  °F | °C
As of 3:52 PM on Monday 22 Dec 2014 (Local Time) from KMBG Reporting Station
Heavy Snow Heavy Snow  
Wind Chill: 20°   Ceiling: 600
Heat Index: 31°   Visibility: 0.25mi
Dew Point: 29°   Wind: 16mph
Humidity: 92%   Direction: 340°NNW
Pressure: 29.47"   Gusts: NA
Location:  45.24°N, 99.78°W
Report Text: KMBG 222152Z AUTO 34014KT 1/4SM +SN FZFG OVC006 M01/M02 A2947 RMK AO2 SLP997 P0004 T10061017
Loading
Personal Weather Stations






























Interactive Weather Map New forecast layout! Learn more

10-Day Weather Forecast

Advertisements
Track Severe Weather on mobile